Search for airport 
image banner adimage banner adimage banner ad
image banner ad

30PN - Pittsburgh Children's Hospital

Located in Pittsburgh, United States

ICAO - 30PN, IATA -

Data provided by Airmate  

General information

Coordinates: N40°27'60" W79°57'10"
Elevation is 1088 feet MSL.
Magnetic variation is -09° East
View others Airports in Pennsylvania

Operational data

Special qualification required
Current time UTC:
Current local time:
Weather at : KAGC - Allegheny County ( 13 km )
METAR: KAGC 231453Z 20009KT 4SM HZ BKN016 BKN024 OVC040 13/11 A2986 RMK AO2 RAE51 SLP114 P0001 60002 T01330106 51010
TAF: KAGC 231133Z 2312/2412 21010KT P6SM OVC025 FM231600 21010G22KT P6SM OVC035 FM240100 21007KT P6SM SKC
View NOTAMs / SUP AIP / TFR affecting this airport [VIEW]
Communications frequencies: [VIEW]

Runways:

Airport contact information

Address: Pittsburgh United States

Satellite view of 30PN